createdAt,value
2022-11-12T00:08:25.471Z,12.97
2022-11-12T00:18:27.532Z,11.57
2022-11-12T00:28:33.441Z,12.13
2022-11-12T00:38:38.143Z,11.50
2022-11-12T00:48:39.828Z,12.33
2022-11-12T00:58:41.940Z,16.27
2022-11-12T01:08:44.182Z,11.10
2022-11-12T01:18:48.309Z,19.90
2022-11-12T01:28:50.948Z,19.73
2022-11-12T01:38:53.568Z,16.10
2022-11-12T01:49:07.332Z,27.27
2022-11-12T01:59:19.928Z,12.20
2022-11-12T02:09:21.889Z,26.37
2022-11-12T02:19:23.527Z,10.90
2022-11-12T02:38:38.278Z,9.43
2022-11-12T02:48:39.916Z,11.43
2022-11-12T02:58:41.588Z,9.77
2022-11-12T03:08:43.273Z,12.80
2022-11-12T03:28:40.483Z,16.77
2022-11-12T03:38:42.121Z,16.93
2022-11-12T03:48:43.826Z,26.33
2022-11-12T03:58:45.467Z,14.90
2022-11-12T04:08:47.213Z,8.50
2022-11-12T04:19:10.075Z,8.30
2022-11-12T04:29:35.016Z,8.60
2022-11-12T04:39:39.005Z,12.47
2022-11-12T04:49:40.629Z,10.50
2022-11-12T04:59:42.275Z,7.93
2022-11-12T05:18:49.234Z,7.60
2022-11-12T05:28:50.856Z,9.10
2022-11-12T05:38:52.517Z,8.90
2022-11-12T05:48:54.566Z,10.33
2022-11-12T05:58:56.796Z,8.40
2022-11-12T06:08:58.438Z,7.37
2022-11-12T06:19:03.189Z,7.13
2022-11-12T06:33:52.273Z,7.57
2022-11-12T06:43:53.870Z,7.67
2022-11-12T06:53:56.203Z,7.47
2022-11-12T07:03:57.931Z,7.67
2022-11-12T07:13:59.748Z,9.87
2022-11-12T07:24:01.365Z,11.07
2022-11-12T07:34:04.157Z,7.73
2022-11-12T07:44:05.845Z,10.27
2022-11-12T07:54:07.647Z,9.93
2022-11-12T08:04:11.844Z,9.23
2022-11-12T08:14:13.455Z,8.47
2022-11-12T08:24:15.162Z,10.80
2022-11-12T08:34:21.521Z,18.57
2022-11-12T08:44:24.238Z,18.73
2022-11-12T08:54:25.888Z,11.23
2022-11-12T09:04:27.614Z,10.90
2022-11-12T09:14:29.266Z,10.67
2022-11-12T09:24:30.920Z,8.68
2022-11-12T09:34:32.546Z,9.27
2022-11-12T09:44:37.805Z,9.53
2022-11-12T09:54:40.650Z,11.57
2022-11-12T10:04:53.761Z,9.53
2022-11-12T10:15:39.021Z,11.63
2022-11-12T10:25:46.630Z,10.60
2022-11-12T10:35:48.947Z,11.37
2022-11-12T10:56:00.114Z,11.63
2022-11-12T11:06:14.093Z,11.77
2022-11-12T11:16:18.382Z,12.77
2022-11-12T11:26:52.245Z,12.00
2022-11-12T11:37:19.918Z,11.70
2022-11-12T11:47:59.439Z,13.17
2022-11-12T11:58:09.334Z,11.70
2022-11-12T12:08:33.073Z,15.40
2022-11-12T12:19:07.923Z,13.00
2022-11-12T12:29:17.898Z,16.20
2022-11-12T12:39:59.091Z,13.60
2022-11-12T12:50:03.873Z,13.20
2022-11-12T13:00:25.479Z,15.20
2022-11-12T13:10:39.223Z,16.47
2022-11-12T13:20:42.415Z,15.00
2022-11-12T13:30:44.043Z,16.40
2022-11-12T13:41:06.830Z,16.40
2022-11-12T13:51:28.448Z,17.33
2022-11-12T14:01:31.735Z,15.80
2022-11-12T14:11:36.452Z,15.90
2022-11-12T14:21:38.469Z,17.50
2022-11-12T14:31:40.100Z,20.83
2022-11-12T14:41:43.151Z,23.03
2022-11-12T14:51:51.077Z,23.27
2022-11-12T15:02:46.846Z,21.63
2022-11-12T15:12:37.681Z,25.57
2022-11-12T15:22:39.726Z,27.57
2022-11-12T15:32:41.933Z,24.40
2022-11-12T15:42:43.642Z,26.90
2022-11-12T15:52:45.884Z,24.47
2022-11-12T16:02:55.995Z,24.83
2022-11-12T16:13:00.209Z,31.97
2022-11-12T16:23:02.295Z,41.03
2022-11-12T16:33:04.069Z,34.63
2022-11-12T16:43:05.754Z,34.13
2022-11-12T16:53:07.443Z,33.23
2022-11-12T17:03:12.599Z,49.73
2022-11-12T17:13:16.257Z,37.90
2022-11-12T17:23:18.045Z,31.23
2022-11-12T17:33:19.683Z,34.13
2022-11-12T17:43:21.289Z,30.23
2022-11-12T17:53:22.940Z,35.13
2022-11-12T18:03:24.865Z,36.47
2022-11-12T18:13:27.923Z,61.20
2022-11-12T18:23:29.911Z,44.27
2022-11-12T18:33:32.728Z,104.93
2022-11-12T18:43:36.278Z,61.00
2022-11-12T18:53:39.568Z,92.30
2022-11-12T19:03:41.943Z,93.17
2022-11-12T19:13:43.619Z,83.13
2022-11-12T19:23:49.995Z,64.93
2022-11-12T19:33:54.889Z,45.60
2022-11-12T19:43:57.030Z,42.07
2022-11-12T19:53:58.731Z,43.10
2022-11-12T20:04:00.384Z,55.20
2022-11-12T20:14:02.501Z,49.30
2022-11-12T20:24:04.465Z,25.87
2022-11-12T20:34:06.216Z,22.30
2022-11-12T20:44:08.306Z,46.47
2022-11-12T20:54:10.652Z,36.50
2022-11-12T21:04:12.503Z,74.37
2022-11-12T21:14:15.174Z,31.13
2022-11-12T21:24:17.099Z,30.80
2022-11-12T21:34:18.719Z,36.40
2022-11-12T21:44:20.611Z,22.30
2022-11-12T21:54:22.401Z,53.03
2022-11-12T22:04:24.120Z,48.20
2022-11-12T22:14:25.763Z,24.77
2022-11-12T22:24:27.436Z,23.33
2022-11-12T22:34:29.073Z,33.23
2022-11-12T22:44:30.771Z,38.27
2022-11-12T22:54:32.396Z,20.20
2022-11-12T23:04:34.206Z,20.20
2022-11-12T23:14:35.881Z,20.50
2022-11-12T23:24:37.751Z,15.93
2022-11-12T23:34:39.373Z,17.20
2022-11-12T23:44:41.077Z,23.30
2022-11-12T23:54:42.766Z,19.57
